Terminal Aerodrome Forecast
Issued by NWS

Home | Current Version | Previous Version | Text Only | Print | Product List | Glossary On
Versions: 1 2 3 4 5 6 7 8 9 10 11 12 13 14
000
FTUS42 KMLB 301736
TAFFPR
TAF
KFPR 301736Z 3018/0118 24007KT P6SM SCT040 SCT250
     FM302100 12009KT P6SM VCTS SCT040CB BKN250
      TEMPO 3021/3024 3SM TSRA BKN035CB
     FM010200 VRB03KT P6SM FEW040 SCT250=

USA.gov is the U.S. government's official web portal to all federal, state and local government web resources and services.